sensor_id;sensor_type;location;lat;lon;timestamp;P1;durP1;ratioP1;P2;durP2;ratioP2
21657;SDS011;10990;48.174;9.782;2023-02-23T00:01:11;23.67;;;13.03;;
21657;SDS011;10990;48.174;9.782;2023-02-23T00:03:39;22.37;;;11.77;;
21657;SDS011;10990;48.174;9.782;2023-02-23T00:06:06;22.87;;;13.20;;
21657;SDS011;10990;48.174;9.782;2023-02-23T00:08:34;20.93;;;12.20;;
21657;SDS011;10990;48.174;9.782;2023-02-23T00:11:02;23.97;;;13.37;;
21657;SDS011;10990;48.174;9.782;2023-02-23T00:13:31;21.10;;;12.23;;
21657;SDS011;10990;48.174;9.782;2023-02-23T00:16:03;20.93;;;12.27;;
21657;SDS011;10990;48.174;9.782;2023-02-23T00:18:30;23.17;;;12.70;;
21657;SDS011;10990;48.174;9.782;2023-02-23T00:21:09;22.23;;;12.77;;
21657;SDS011;10990;48.174;9.782;2023-02-23T00:23:39;23.80;;;13.17;;
21657;SDS011;10990;48.174;9.782;2023-02-23T00:26:07;22.13;;;12.47;;
21657;SDS011;10990;48.174;9.782;2023-02-23T00:28:35;21.87;;;12.93;;
21657;SDS011;10990;48.174;9.782;2023-02-23T00:31:02;22.03;;;13.07;;
21657;SDS011;10990;48.174;9.782;2023-02-23T00:33:29;23.63;;;12.83;;
21657;SDS011;10990;48.174;9.782;2023-02-23T00:36:01;24.20;;;13.17;;
21657;SDS011;10990;48.174;9.782;2023-02-23T00:38:29;22.47;;;12.70;;
21657;SDS011;10990;48.174;9.782;2023-02-23T00:40:59;24.47;;;13.43;;
21657;SDS011;10990;48.174;9.782;2023-02-23T00:43:25;22.57;;;12.47;;
21657;SDS011;10990;48.174;9.782;2023-02-23T00:45:54;22.70;;;12.10;;
21657;SDS011;10990;48.174;9.782;2023-02-23T00:48:21;21.17;;;12.30;;
21657;SDS011;10990;48.174;9.782;2023-02-23T00:50:56;21.73;;;12.77;;
21657;SDS011;10990;48.174;9.782;2023-02-23T00:53:23;21.93;;;12.47;;
21657;SDS011;10990;48.174;9.782;2023-02-23T00:55:51;22.60;;;12.07;;
21657;SDS011;10990;48.174;9.782;2023-02-23T00:58:18;21.53;;;11.53;;
21657;SDS011;10990;48.174;9.782;2023-02-23T01:00:45;18.63;;;11.67;;
21657;SDS011;10990;48.174;9.782;2023-02-23T01:03:13;19.13;;;11.73;;
21657;SDS011;10990;48.174;9.782;2023-02-23T01:05:40;21.73;;;11.03;;
21657;SDS011;10990;48.174;9.782;2023-02-23T01:08:08;20.27;;;11.30;;
21657;SDS011;10990;48.174;9.782;2023-02-23T01:10:37;19.13;;;11.10;;
21657;SDS011;10990;48.174;9.782;2023-02-23T01:13:09;20.80;;;12.23;;
21657;SDS011;10990;48.174;9.782;2023-02-23T01:15:39;19.83;;;11.57;;
21657;SDS011;10990;48.174;9.782;2023-02-23T01:18:07;22.43;;;12.60;;
21657;SDS011;10990;48.174;9.782;2023-02-23T01:20:38;22.13;;;12.30;;
21657;SDS011;10990;48.174;9.782;2023-02-23T01:23:05;24.03;;;12.90;;
21657;SDS011;10990;48.174;9.782;2023-02-23T01:25:33;22.20;;;12.67;;
21657;SDS011;10990;48.174;9.782;2023-02-23T01:28:00;23.03;;;13.10;;
21657;SDS011;10990;48.174;9.782;2023-02-23T01:30:28;19.80;;;12.27;;
21657;SDS011;10990;48.174;9.782;2023-02-23T01:32:54;22.97;;;13.40;;
21657;SDS011;10990;48.174;9.782;2023-02-23T01:35:21;21.97;;;12.83;;
21657;SDS011;10990;48.174;9.782;2023-02-23T01:37:49;24.83;;;13.77;;
21657;SDS011;10990;48.174;9.782;2023-02-23T01:40:17;23.53;;;13.37;;
21657;SDS011;10990;48.174;9.782;2023-02-23T01:42:53;28.20;;;13.87;;
21657;SDS011;10990;48.174;9.782;2023-02-23T01:45:27;25.83;;;14.30;;
21657;SDS011;10990;48.174;9.782;2023-02-23T01:48:00;25.47;;;13.50;;
21657;SDS011;10990;48.174;9.782;2023-02-23T01:50:32;24.80;;;13.67;;
21657;SDS011;10990;48.174;9.782;2023-02-23T01:53:05;23.83;;;13.63;;
21657;SDS011;10990;48.174;9.782;2023-02-23T01:55:32;23.53;;;13.70;;
21657;SDS011;10990;48.174;9.782;2023-02-23T01:58:01;24.67;;;14.13;;
21657;SDS011;10990;48.174;9.782;2023-02-23T02:00:31;24.07;;;13.97;;
21657;SDS011;10990;48.174;9.782;2023-02-23T02:03:01;24.23;;;14.00;;
21657;SDS011;10990;48.174;9.782;2023-02-23T02:05:36;23.43;;;13.57;;
21657;SDS011;10990;48.174;9.782;2023-02-23T02:08:06;25.47;;;14.53;;
21657;SDS011;10990;48.174;9.782;2023-02-23T02:10:35;26.20;;;14.63;;
21657;SDS011;10990;48.174;9.782;2023-02-23T02:13:11;24.30;;;14.70;;
21657;SDS011;10990;48.174;9.782;2023-02-23T02:15:46;28.37;;;15.77;;
21657;SDS011;10990;48.174;9.782;2023-02-23T02:18:40;26.47;;;14.90;;
21657;SDS011;10990;48.174;9.782;2023-02-23T02:27:47;30.63;;;16.10;;
21657;SDS011;10990;48.174;9.782;2023-02-23T02:31:01;26.27;;;14.63;;
21657;SDS011;10990;48.174;9.782;2023-02-23T02:34:05;26.87;;;15.80;;
21657;SDS011;10990;48.174;9.782;2023-02-23T02:37:09;28.53;;;15.80;;
21657;SDS011;10990;48.174;9.782;2023-02-23T02:39:46;29.60;;;15.40;;
21657;SDS011;10990;48.174;9.782;2023-02-23T02:42:40;27.33;;;15.87;;
21657;SDS011;10990;48.174;9.782;2023-02-23T02:45:19;28.03;;;14.97;;
21657;SDS011;10990;48.174;9.782;2023-02-23T02:47:53;26.50;;;14.97;;
21657;SDS011;10990;48.174;9.782;2023-02-23T02:50:26;28.13;;;16.00;;
21657;SDS011;10990;48.174;9.782;2023-02-23T02:53:04;29.47;;;15.80;;
21657;SDS011;10990;48.174;9.782;2023-02-23T02:55:32;27.43;;;14.87;;
21657;SDS011;10990;48.174;9.782;2023-02-23T02:58:03;28.43;;;15.10;;
21657;SDS011;10990;48.174;9.782;2023-02-23T03:00:34;27.90;;;15.13;;
21657;SDS011;10990;48.174;9.782;2023-02-23T03:03:27;34.90;;;16.93;;
21657;SDS011;10990;48.174;9.782;2023-02-23T03:06:14;28.93;;;15.50;;
21657;SDS011;10990;48.174;9.782;2023-02-23T03:09:04;29.83;;;16.37;;
21657;SDS011;10990;48.174;9.782;2023-02-23T03:12:02;29.20;;;15.47;;
21657;SDS011;10990;48.174;9.782;2023-02-23T03:14:53;26.90;;;15.00;;
21657;SDS011;10990;48.174;9.782;2023-02-23T03:17:46;26.93;;;15.57;;
21657;SDS011;10990;48.174;9.782;2023-02-23T03:20:38;26.60;;;14.97;;
21657;SDS011;10990;48.174;9.782;2023-02-23T03:23:27;25.50;;;14.80;;
21657;SDS011;10990;48.174;9.782;2023-02-23T03:26:20;27.07;;;15.63;;
21657;SDS011;10990;48.174;9.782;2023-02-23T03:29:11;29.37;;;16.17;;
21657;SDS011;10990;48.174;9.782;2023-02-23T03:32:06;30.60;;;17.07;;
21657;SDS011;10990;48.174;9.782;2023-02-23T03:34:57;30.03;;;16.50;;
21657;SDS011;10990;48.174;9.782;2023-02-23T03:37:49;31.27;;;15.90;;
21657;SDS011;10990;48.174;9.782;2023-02-23T03:40:39;29.30;;;16.57;;
21657;SDS011;10990;48.174;9.782;2023-02-23T03:43:28;28.70;;;16.53;;
21657;SDS011;10990;48.174;9.782;2023-02-23T03:46:17;30.17;;;16.40;;
21657;SDS011;10990;48.174;9.782;2023-02-23T03:49:06;29.57;;;16.57;;
21657;SDS011;10990;48.174;9.782;2023-02-23T03:51:54;33.17;;;17.73;;
21657;SDS011;10990;48.174;9.782;2023-02-23T03:54:46;28.47;;;16.90;;
21657;SDS011;10990;48.174;9.782;2023-02-23T03:57:36;33.63;;;17.57;;
21657;SDS011;10990;48.174;9.782;2023-02-23T04:00:24;31.63;;;17.47;;
21657;SDS011;10990;48.174;9.782;2023-02-23T04:03:13;32.70;;;17.47;;
21657;SDS011;10990;48.174;9.782;2023-02-23T04:06:00;30.93;;;16.83;;
21657;SDS011;10990;48.174;9.782;2023-02-23T04:08:47;34.43;;;18.20;;
21657;SDS011;10990;48.174;9.782;2023-02-23T04:11:36;29.87;;;16.73;;
21657;SDS011;10990;48.174;9.782;2023-02-23T04:14:25;31.97;;;17.83;;
21657;SDS011;10990;48.174;9.782;2023-02-23T04:16:56;28.70;;;16.53;;
21657;SDS011;10990;48.174;9.782;2023-02-23T04:19:25;32.33;;;17.47;;
21657;SDS011;10990;48.174;9.782;2023-02-23T04:21:52;30.17;;;17.77;;
21657;SDS011;10990;48.174;9.782;2023-02-23T04:24:19;29.37;;;17.00;;
21657;SDS011;10990;48.174;9.782;2023-02-23T04:26:46;31.10;;;16.93;;
21657;SDS011;10990;48.174;9.782;2023-02-23T04:29:14;31.30;;;17.20;;
21657;SDS011;10990;48.174;9.782;2023-02-23T04:31:40;36.00;;;18.13;;
21657;SDS011;10990;48.174;9.782;2023-02-23T04:34:08;31.30;;;17.53;;
21657;SDS011;10990;48.174;9.782;2023-02-23T04:36:35;30.57;;;16.73;;
21657;SDS011;10990;48.174;9.782;2023-02-23T04:39:02;30.57;;;17.00;;
21657;SDS011;10990;48.174;9.782;2023-02-23T04:41:28;31.77;;;17.60;;
21657;SDS011;10990;48.174;9.782;2023-02-23T04:43:55;33.50;;;17.43;;
21657;SDS011;10990;48.174;9.782;2023-02-23T04:46:22;33.53;;;18.43;;
21657;SDS011;10990;48.174;9.782;2023-02-23T04:48:50;33.93;;;18.63;;
21657;SDS011;10990;48.174;9.782;2023-02-23T04:51:18;34.00;;;18.93;;
21657;SDS011;10990;48.174;9.782;2023-02-23T04:53:44;34.73;;;19.13;;
21657;SDS011;10990;48.174;9.782;2023-02-23T04:56:11;33.30;;;18.43;;
21657;SDS011;10990;48.174;9.782;2023-02-23T04:58:38;33.20;;;18.00;;
21657;SDS011;10990;48.174;9.782;2023-02-23T05:01:05;34.03;;;18.20;;
21657;SDS011;10990;48.174;9.782;2023-02-23T05:03:33;33.33;;;18.03;;
21657;SDS011;10990;48.174;9.782;2023-02-23T05:06:00;30.87;;;17.90;;
21657;SDS011;10990;48.174;9.782;2023-02-23T05:08:28;34.43;;;18.80;;
21657;SDS011;10990;48.174;9.782;2023-02-23T05:10:55;32.90;;;18.40;;
21657;SDS011;10990;48.174;9.782;2023-02-23T05:13:22;32.30;;;18.27;;
21657;SDS011;10990;48.174;9.782;2023-02-23T05:15:49;33.77;;;19.17;;
21657;SDS011;10990;48.174;9.782;2023-02-23T05:18:15;36.37;;;18.77;;
21657;SDS011;10990;48.174;9.782;2023-02-23T05:20:42;32.40;;;18.93;;
21657;SDS011;10990;48.174;9.782;2023-02-23T05:23:10;37.90;;;21.03;;
21657;SDS011;10990;48.174;9.782;2023-02-23T05:25:38;39.97;;;22.43;;
21657;SDS011;10990;48.174;9.782;2023-02-23T05:28:05;47.90;;;25.63;;
21657;SDS011;10990;48.174;9.782;2023-02-23T05:30:32;58.77;;;30.20;;
21657;SDS011;10990;48.174;9.782;2023-02-23T05:32:59;85.80;;;41.53;;
21657;SDS011;10990;48.174;9.782;2023-02-23T05:35:26;92.87;;;48.03;;
21657;SDS011;10990;48.174;9.782;2023-02-23T05:37:53;59.17;;;30.80;;
21657;SDS011;10990;48.174;9.782;2023-02-23T05:40:20;41.07;;;23.10;;
21657;SDS011;10990;48.174;9.782;2023-02-23T05:42:48;37.43;;;20.37;;
21657;SDS011;10990;48.174;9.782;2023-02-23T05:45:14;35.33;;;19.30;;
21657;SDS011;10990;48.174;9.782;2023-02-23T05:47:41;31.83;;;18.00;;
21657;SDS011;10990;48.174;9.782;2023-02-23T05:50:09;36.93;;;18.60;;
21657;SDS011;10990;48.174;9.782;2023-02-23T05:52:37;33.43;;;19.40;;
21657;SDS011;10990;48.174;9.782;2023-02-23T05:55:06;32.60;;;17.57;;
21657;SDS011;10990;48.174;9.782;2023-02-23T05:57:34;33.00;;;17.17;;
21657;SDS011;10990;48.174;9.782;2023-02-23T06:00:03;31.47;;;17.30;;
21657;SDS011;10990;48.174;9.782;2023-02-23T06:02:33;33.33;;;18.03;;
21657;SDS011;10990;48.174;9.782;2023-02-23T06:05:00;30.83;;;17.40;;
21657;SDS011;10990;48.174;9.782;2023-02-23T06:07:27;32.17;;;17.60;;
21657;SDS011;10990;48.174;9.782;2023-02-23T06:09:54;30.30;;;16.30;;
21657;SDS011;10990;48.174;9.782;2023-02-23T06:12:20;30.27;;;17.67;;
21657;SDS011;10990;48.174;9.782;2023-02-23T06:14:47;29.63;;;16.97;;
21657;SDS011;10990;48.174;9.782;2023-02-23T06:17:16;29.97;;;16.37;;
21657;SDS011;10990;48.174;9.782;2023-02-23T06:19:43;32.37;;;17.20;;
21657;SDS011;10990;48.174;9.782;2023-02-23T06:22:09;29.00;;;18.27;;
21657;SDS011;10990;48.174;9.782;2023-02-23T06:24:36;33.93;;;19.90;;
21657;SDS011;10990;48.174;9.782;2023-02-23T06:27:03;52.23;;;28.90;;
21657;SDS011;10990;48.174;9.782;2023-02-23T06:29:29;45.07;;;23.30;;
21657;SDS011;10990;48.174;9.782;2023-02-23T06:31:56;34.50;;;20.50;;
21657;SDS011;10990;48.174;9.782;2023-02-23T06:34:25;31.37;;;19.23;;
21657;SDS011;10990;48.174;9.782;2023-02-23T06:36:52;31.23;;;18.47;;
21657;SDS011;10990;48.174;9.782;2023-02-23T06:39:19;32.23;;;17.30;;
21657;SDS011;10990;48.174;9.782;2023-02-23T06:41:45;29.03;;;17.53;;
21657;SDS011;10990;48.174;9.782;2023-02-23T06:44:12;31.90;;;18.57;;
21657;SDS011;10990;48.174;9.782;2023-02-23T06:46:39;26.60;;;15.57;;
21657;SDS011;10990;48.174;9.782;2023-02-23T06:49:06;28.50;;;17.47;;
21657;SDS011;10990;48.174;9.782;2023-02-23T06:51:34;29.53;;;17.27;;
21657;SDS011;10990;48.174;9.782;2023-02-23T06:54:00;28.57;;;17.03;;
21657;SDS011;10990;48.174;9.782;2023-02-23T06:56:27;27.67;;;16.63;;
21657;SDS011;10990;48.174;9.782;2023-02-23T06:58:54;30.10;;;17.80;;
21657;SDS011;10990;48.174;9.782;2023-02-23T07:01:20;27.37;;;16.60;;
21657;SDS011;10990;48.174;9.782;2023-02-23T07:03:47;27.63;;;16.93;;
21657;SDS011;10990;48.174;9.782;2023-02-23T07:06:14;30.20;;;17.83;;
21657;SDS011;10990;48.174;9.782;2023-02-23T07:08:42;28.33;;;16.50;;
21657;SDS011;10990;48.174;9.782;2023-02-23T07:11:10;28.27;;;17.27;;
21657;SDS011;10990;48.174;9.782;2023-02-23T07:13:38;31.33;;;17.70;;
21657;SDS011;10990;48.174;9.782;2023-02-23T07:16:05;30.30;;;17.07;;
21657;SDS011;10990;48.174;9.782;2023-02-23T07:18:33;27.27;;;16.27;;
21657;SDS011;10990;48.174;9.782;2023-02-23T07:21:00;27.80;;;16.50;;
21657;SDS011;10990;48.174;9.782;2023-02-23T07:23:27;28.20;;;16.63;;
21657;SDS011;10990;48.174;9.782;2023-02-23T07:25:55;28.57;;;16.77;;
21657;SDS011;10990;48.174;9.782;2023-02-23T07:28:22;28.20;;;17.30;;
21657;SDS011;10990;48.174;9.782;2023-02-23T07:30:49;28.20;;;17.03;;
21657;SDS011;10990;48.174;9.782;2023-02-23T07:33:16;27.47;;;16.77;;
21657;SDS011;10990;48.174;9.782;2023-02-23T07:35:43;27.00;;;16.43;;
21657;SDS011;10990;48.174;9.782;2023-02-23T07:38:10;31.73;;;17.67;;
21657;SDS011;10990;48.174;9.782;2023-02-23T07:40:37;31.03;;;18.10;;
21657;SDS011;10990;48.174;9.782;2023-02-23T07:43:06;29.00;;;17.67;;
21657;SDS011;10990;48.174;9.782;2023-02-23T07:45:33;30.30;;;18.27;;
21657;SDS011;10990;48.174;9.782;2023-02-23T07:48:00;27.57;;;16.40;;
21657;SDS011;10990;48.174;9.782;2023-02-23T07:50:26;27.20;;;16.47;;
21657;SDS011;10990;48.174;9.782;2023-02-23T07:52:53;32.70;;;17.70;;
21657;SDS011;10990;48.174;9.782;2023-02-23T07:55:20;28.17;;;16.57;;
21657;SDS011;10990;48.174;9.782;2023-02-23T07:57:46;29.88;;;17.52;;
21657;SDS011;10990;48.174;9.782;2023-02-23T08:00:16;28.03;;;17.13;;
21657;SDS011;10990;48.174;9.782;2023-02-23T08:02:43;27.80;;;17.67;;
21657;SDS011;10990;48.174;9.782;2023-02-23T08:05:10;26.50;;;16.13;;
21657;SDS011;10990;48.174;9.782;2023-02-23T08:07:37;27.30;;;16.63;;
21657;SDS011;10990;48.174;9.782;2023-02-23T08:10:04;27.90;;;16.73;;
21657;SDS011;10990;48.174;9.782;2023-02-23T08:12:31;30.87;;;17.53;;
21657;SDS011;10990;48.174;9.782;2023-02-23T08:14:58;28.88;;;18.05;;
21657;SDS011;10990;48.174;9.782;2023-02-23T08:17:26;25.88;;;16.33;;
21657;SDS011;10990;48.174;9.782;2023-02-23T08:19:54;25.40;;;14.98;;
21657;SDS011;10990;48.174;9.782;2023-02-23T08:22:21;26.33;;;15.83;;
21657;SDS011;10990;48.174;9.782;2023-02-23T08:24:47;26.47;;;15.17;;
21657;SDS011;10990;48.174;9.782;2023-02-23T08:27:14;26.10;;;13.90;;
21657;SDS011;10990;48.174;9.782;2023-02-23T08:29:41;26.67;;;15.60;;
21657;SDS011;10990;48.174;9.782;2023-02-23T08:32:07;27.40;;;15.30;;
21657;SDS011;10990;48.174;9.782;2023-02-23T08:34:37;24.80;;;13.83;;
21657;SDS011;10990;48.174;9.782;2023-02-23T08:37:04;24.97;;;14.83;;
21657;SDS011;10990;48.174;9.782;2023-02-23T08:39:31;27.17;;;15.47;;
21657;SDS011;10990;48.174;9.782;2023-02-23T08:41:58;27.17;;;16.03;;
21657;SDS011;10990;48.174;9.782;2023-02-23T08:44:25;24.07;;;14.63;;
21657;SDS011;10990;48.174;9.782;2023-02-23T08:46:52;26.73;;;14.83;;
21657;SDS011;10990;48.174;9.782;2023-02-23T08:49:19;24.17;;;14.03;;
21657;SDS011;10990;48.174;9.782;2023-02-23T08:51:48;24.37;;;14.43;;
21657;SDS011;10990;48.174;9.782;2023-02-23T08:54:14;24.90;;;14.03;;
21657;SDS011;10990;48.174;9.782;2023-02-23T08:56:42;23.30;;;13.97;;
21657;SDS011;10990;48.174;9.782;2023-02-23T08:59:10;22.98;;;14.15;;
21657;SDS011;10990;48.174;9.782;2023-02-23T09:01:38;28.05;;;16.17;;
21657;SDS011;10990;48.174;9.782;2023-02-23T09:04:06;26.40;;;14.48;;
21657;SDS011;10990;48.174;9.782;2023-02-23T09:06:33;24.87;;;15.33;;
21657;SDS011;10990;48.174;9.782;2023-02-23T09:09:01;23.33;;;14.10;;
21657;SDS011;10990;48.174;9.782;2023-02-23T09:11:28;25.77;;;13.82;;
21657;SDS011;10990;48.174;9.782;2023-02-23T09:13:55;24.10;;;14.57;;
21657;SDS011;10990;48.174;9.782;2023-02-23T09:16:22;21.95;;;12.60;;
21657;SDS011;10990;48.174;9.782;2023-02-23T09:18:49;24.33;;;14.13;;
21657;SDS011;10990;48.174;9.782;2023-02-23T09:21:16;24.25;;;13.68;;
21657;SDS011;10990;48.174;9.782;2023-02-23T09:23:45;21.52;;;13.82;;
21657;SDS011;10990;48.174;9.782;2023-02-23T09:26:15;21.02;;;13.55;;
21657;SDS011;10990;48.174;9.782;2023-02-23T09:28:42;24.13;;;14.23;;
21657;SDS011;10990;48.174;9.782;2023-02-23T09:31:10;23.58;;;13.27;;
21657;SDS011;10990;48.174;9.782;2023-02-23T09:33:38;21.05;;;11.95;;
21657;SDS011;10990;48.174;9.782;2023-02-23T09:36:05;20.33;;;12.43;;
21657;SDS011;10990;48.174;9.782;2023-02-23T09:38:32;23.42;;;12.73;;
21657;SDS011;10990;48.174;9.782;2023-02-23T09:40:59;19.73;;;12.07;;
21657;SDS011;10990;48.174;9.782;2023-02-23T09:43:29;20.75;;;12.55;;
21657;SDS011;10990;48.174;9.782;2023-02-23T09:46:05;21.88;;;12.65;;
21657;SDS011;10990;48.174;9.782;2023-02-23T09:48:39;21.00;;;11.57;;
21657;SDS011;10990;48.174;9.782;2023-02-23T09:51:07;19.40;;;11.55;;
21657;SDS011;10990;48.174;9.782;2023-02-23T09:53:41;18.70;;;11.10;;
21657;SDS011;10990;48.174;9.782;2023-02-23T09:56:13;19.42;;;11.43;;
21657;SDS011;10990;48.174;9.782;2023-02-23T09:58:47;18.58;;;11.45;;
21657;SDS011;10990;48.174;9.782;2023-02-23T10:01:21;25.77;;;12.07;;
21657;SDS011;10990;48.174;9.782;2023-02-23T10:04:06;19.52;;;11.50;;
21657;SDS011;10990;48.174;9.782;2023-02-23T10:06:39;20.30;;;11.75;;
21657;SDS011;10990;48.174;9.782;2023-02-23T10:09:13;18.67;;;11.88;;
21657;SDS011;10990;48.174;9.782;2023-02-23T10:11:48;18.67;;;12.07;;
21657;SDS011;10990;48.174;9.782;2023-02-23T10:14:39;19.40;;;11.55;;
21657;SDS011;10990;48.174;9.782;2023-02-23T10:17:22;20.58;;;10.88;;
21657;SDS011;10990;48.174;9.782;2023-02-23T10:19:58;14.68;;;9.80;;
21657;SDS011;10990;48.174;9.782;2023-02-23T10:22:32;15.93;;;10.27;;
21657;SDS011;10990;48.174;9.782;2023-02-23T10:25:01;17.40;;;11.15;;
21657;SDS011;10990;48.174;9.782;2023-02-23T10:27:35;17.92;;;10.90;;
21657;SDS011;10990;48.174;9.782;2023-02-23T10:30:11;14.88;;;10.23;;
21657;SDS011;10990;48.174;9.782;2023-02-23T10:32:44;19.33;;;11.10;;
21657;SDS011;10990;48.174;9.782;2023-02-23T10:35:18;16.45;;;10.60;;
21657;SDS011;10990;48.174;9.782;2023-02-23T10:37:46;16.48;;;9.50;;
21657;SDS011;10990;48.174;9.782;2023-02-23T10:40:15;14.95;;;8.45;;
21657;SDS011;10990;48.174;9.782;2023-02-23T10:42:44;16.88;;;9.57;;
21657;SDS011;10990;48.174;9.782;2023-02-23T10:45:14;15.25;;;9.82;;
21657;SDS011;10990;48.174;9.782;2023-02-23T10:47:48;15.25;;;9.43;;
21657;SDS011;10990;48.174;9.782;2023-02-23T10:50:18;15.75;;;9.32;;
21657;SDS011;10990;48.174;9.782;2023-02-23T10:52:47;16.70;;;9.27;;
21657;SDS011;10990;48.174;9.782;2023-02-23T10:55:20;13.82;;;8.23;;
21657;SDS011;10990;48.174;9.782;2023-02-23T10:57:50;14.88;;;7.82;;
21657;SDS011;10990;48.174;9.782;2023-02-23T11:00:29;13.70;;;7.82;;
21657;SDS011;10990;48.174;9.782;2023-02-23T11:02:58;14.23;;;8.43;;
21657;SDS011;10990;48.174;9.782;2023-02-23T11:05:27;13.85;;;8.13;;
21657;SDS011;10990;48.174;9.782;2023-02-23T11:08:10;15.65;;;7.97;;
21657;SDS011;10990;48.174;9.782;2023-02-23T11:11:04;14.68;;;8.35;;
21657;SDS011;10990;48.174;9.782;2023-02-23T11:13:45;35.92;;;9.40;;
21657;SDS011;10990;48.174;9.782;2023-02-23T11:16:15;12.82;;;7.97;;
21657;SDS011;10990;48.174;9.782;2023-02-23T11:18:47;15.45;;;8.57;;
21657;SDS011;10990;48.174;9.782;2023-02-23T11:21:20;14.32;;;8.68;;
21657;SDS011;10990;48.174;9.782;2023-02-23T11:23:50;12.93;;;7.85;;
21657;SDS011;10990;48.174;9.782;2023-02-23T11:26:20;13.85;;;8.40;;
21657;SDS011;10990;48.174;9.782;2023-02-23T11:28:53;14.85;;;8.45;;
21657;SDS011;10990;48.174;9.782;2023-02-23T11:31:27;12.95;;;8.25;;
21657;SDS011;10990;48.174;9.782;2023-02-23T11:33:57;13.40;;;7.70;;
21657;SDS011;10990;48.174;9.782;2023-02-23T11:36:26;12.43;;;7.32;;
21657;SDS011;10990;48.174;9.782;2023-02-23T11:39:05;14.82;;;7.82;;
21657;SDS011;10990;48.174;9.782;2023-02-23T11:41:40;13.45;;;7.50;;
21657;SDS011;10990;48.174;9.782;2023-02-23T11:44:08;13.90;;;7.60;;
21657;SDS011;10990;48.174;9.782;2023-02-23T11:46:46;12.50;;;7.70;;
21657;SDS011;10990;48.174;9.782;2023-02-23T11:49:13;14.18;;;7.20;;
21657;SDS011;10990;48.174;9.782;2023-02-23T11:51:46;13.75;;;6.80;;
21657;SDS011;10990;48.174;9.782;2023-02-23T11:54:16;10.98;;;6.90;;
21657;SDS011;10990;48.174;9.782;2023-02-23T11:56:47;13.13;;;7.07;;
21657;SDS011;10990;48.174;9.782;2023-02-23T11:59:26;12.77;;;6.60;;
21657;SDS011;10990;48.174;9.782;2023-02-23T12:01:58;13.32;;;6.75;;
21657;SDS011;10990;48.174;9.782;2023-02-23T12:04:31;11.02;;;6.75;;
21657;SDS011;10990;48.174;9.782;2023-02-23T12:09:57;12.80;;;6.78;;
21657;SDS011;10990;48.174;9.782;2023-02-23T12:12:30;12.55;;;6.20;;
21657;SDS011;10990;48.174;9.782;2023-02-23T12:15:11;14.75;;;6.90;;
21657;SDS011;10990;48.174;9.782;2023-02-23T12:17:47;12.93;;;6.43;;
21657;SDS011;10990;48.174;9.782;2023-02-23T12:20:20;14.10;;;6.65;;
21657;SDS011;10990;48.174;9.782;2023-02-23T12:22:50;13.23;;;7.22;;
21657;SDS011;10990;48.174;9.782;2023-02-23T12:25:22;12.25;;;6.93;;
21657;SDS011;10990;48.174;9.782;2023-02-23T12:27:55;12.45;;;7.40;;
21657;SDS011;10990;48.174;9.782;2023-02-23T12:30:31;15.20;;;6.88;;
21657;SDS011;10990;48.174;9.782;2023-02-23T12:33:08;15.15;;;7.35;;
21657;SDS011;10990;48.174;9.782;2023-02-23T12:35:40;13.70;;;7.30;;
21657;SDS011;10990;48.174;9.782;2023-02-23T12:38:14;14.07;;;6.72;;
21657;SDS011;10990;48.174;9.782;2023-02-23T12:40:53;13.15;;;7.22;;
21657;SDS011;10990;48.174;9.782;2023-02-23T12:43:26;13.15;;;6.88;;
21657;SDS011;10990;48.174;9.782;2023-02-23T12:46:02;12.07;;;6.70;;
21657;SDS011;10990;48.174;9.782;2023-02-23T12:48:36;13.18;;;6.28;;
21657;SDS011;10990;48.174;9.782;2023-02-23T12:51:14;11.38;;;6.35;;
21657;SDS011;10990;48.174;9.782;2023-02-23T12:53:46;11.10;;;6.25;;
21657;SDS011;10990;48.174;9.782;2023-02-23T12:56:17;10.55;;;5.45;;
21657;SDS011;10990;48.174;9.782;2023-02-23T12:58:59;12.80;;;6.82;;
21657;SDS011;10990;48.174;9.782;2023-02-23T13:01:40;10.20;;;5.57;;
21657;SDS011;10990;48.174;9.782;2023-02-23T13:04:16;10.02;;;5.65;;
21657;SDS011;10990;48.174;9.782;2023-02-23T13:06:53;9.25;;;6.30;;
21657;SDS011;10990;48.174;9.782;2023-02-23T13:09:28;12.05;;;5.85;;
21657;SDS011;10990;48.174;9.782;2023-02-23T13:12:05;10.57;;;6.32;;
21657;SDS011;10990;48.174;9.782;2023-02-23T13:14:41;8.50;;;5.80;;
21657;SDS011;10990;48.174;9.782;2023-02-23T13:17:36;11.05;;;5.90;;
21657;SDS011;10990;48.174;9.782;2023-02-23T13:20:10;12.00;;;6.30;;
21657;SDS011;10990;48.174;9.782;2023-02-23T13:22:44;12.27;;;5.88;;
21657;SDS011;10990;48.174;9.782;2023-02-23T13:25:19;10.63;;;5.90;;
21657;SDS011;10990;48.174;9.782;2023-02-23T13:27:55;12.63;;;6.32;;
21657;SDS011;10990;48.174;9.782;2023-02-23T13:30:25;9.40;;;6.00;;
21657;SDS011;10990;48.174;9.782;2023-02-23T13:32:56;11.43;;;5.85;;
21657;SDS011;10990;48.174;9.782;2023-02-23T13:35:26;9.65;;;5.75;;
21657;SDS011;10990;48.174;9.782;2023-02-23T13:37:59;10.75;;;6.05;;
21657;SDS011;10990;48.174;9.782;2023-02-23T13:40:39;11.73;;;5.95;;
21657;SDS011;10990;48.174;9.782;2023-02-23T13:43:12;12.30;;;5.93;;
21657;SDS011;10990;48.174;9.782;2023-02-23T13:45:51;11.80;;;5.65;;
21657;SDS011;10990;48.174;9.782;2023-02-23T13:48:34;12.45;;;6.10;;
21657;SDS011;10990;48.174;9.782;2023-02-23T13:51:13;9.27;;;4.50;;
21657;SDS011;10990;48.174;9.782;2023-02-23T13:53:45;9.02;;;5.10;;
21657;SDS011;10990;48.174;9.782;2023-02-23T13:56:21;9.75;;;5.38;;
21657;SDS011;10990;48.174;9.782;2023-02-23T13:58:50;9.35;;;4.90;;
21657;SDS011;10990;48.174;9.782;2023-02-23T14:01:25;9.25;;;5.32;;
21657;SDS011;10990;48.174;9.782;2023-02-23T14:03:55;10.23;;;5.55;;
21657;SDS011;10990;48.174;9.782;2023-02-23T14:06:25;9.73;;;5.63;;
21657;SDS011;10990;48.174;9.782;2023-02-23T14:08:54;13.10;;;6.05;;
21657;SDS011;10990;48.174;9.782;2023-02-23T14:11:36;10.20;;;5.75;;
21657;SDS011;10990;48.174;9.782;2023-02-23T14:14:08;11.00;;;5.55;;
21657;SDS011;10990;48.174;9.782;2023-02-23T14:16:38;9.68;;;5.75;;
21657;SDS011;10990;48.174;9.782;2023-02-23T14:19:09;10.63;;;5.88;;
21657;SDS011;10990;48.174;9.782;2023-02-23T14:21:44;11.77;;;5.80;;
21657;SDS011;10990;48.174;9.782;2023-02-23T14:24:16;9.95;;;5.38;;
21657;SDS011;10990;48.174;9.782;2023-02-23T14:29:44;9.77;;;5.20;;
21657;SDS011;10990;48.174;9.782;2023-02-23T14:32:51;11.07;;;6.05;;
21657;SDS011;10990;48.174;9.782;2023-02-23T14:35:35;9.50;;;5.30;;
21657;SDS011;10990;48.174;9.782;2023-02-23T14:38:08;10.32;;;5.32;;
21657;SDS011;10990;48.174;9.782;2023-02-23T14:40:37;11.95;;;5.03;;
21657;SDS011;10990;48.174;9.782;2023-02-23T14:46:07;11.20;;;5.18;;
21657;SDS011;10990;48.174;9.782;2023-02-23T14:48:38;9.45;;;5.22;;
21657;SDS011;10990;48.174;9.782;2023-02-23T14:51:09;11.48;;;5.43;;
21657;SDS011;10990;48.174;9.782;2023-02-23T14:53:41;11.32;;;5.30;;
21657;SDS011;10990;48.174;9.782;2023-02-23T14:56:16;12.20;;;5.80;;
21657;SDS011;10990;48.174;9.782;2023-02-23T14:58:48;9.93;;;5.25;;
21657;SDS011;10990;48.174;9.782;2023-02-23T15:01:30;8.93;;;5.28;;
21657;SDS011;10990;48.174;9.782;2023-02-23T15:04:06;8.98;;;4.78;;
21657;SDS011;10990;48.174;9.782;2023-02-23T15:06:35;10.00;;;4.80;;
21657;SDS011;10990;48.174;9.782;2023-02-23T15:09:03;9.77;;;5.15;;
21657;SDS011;10990;48.174;9.782;2023-02-23T15:11:30;7.47;;;4.43;;